createdAt,value
2017-01-21T00:00:34.642Z,0
2017-01-21T00:01:43.338Z,0
2017-01-21T00:02:52.036Z,0
2017-01-21T00:04:00.728Z,0
2017-01-21T00:05:09.422Z,0
2017-01-21T00:06:18.119Z,0
2017-01-21T00:07:26.814Z,0
2017-01-21T00:08:35.512Z,0
2017-01-21T00:09:44.204Z,0
2017-01-21T00:10:52.905Z,0
2017-01-21T00:12:01.594Z,0
2017-01-21T00:13:10.682Z,0
2017-01-21T00:14:19.373Z,0
2017-01-21T00:15:28.061Z,0
2017-01-21T00:16:36.757Z,0
2017-01-21T00:17:45.448Z,0
2017-01-21T00:18:54.139Z,0
2017-01-21T00:20:02.831Z,0
2017-01-21T00:21:11.520Z,0
2017-01-21T00:22:20.213Z,0
2017-01-21T00:23:28.901Z,0
2017-01-21T00:24:37.594Z,0
2017-01-21T00:25:46.287Z,0
2017-01-21T00:26:54.989Z,0
2017-01-21T00:28:03.685Z,0
2017-01-21T00:29:12.373Z,0
2017-01-21T00:30:21.068Z,0
2017-01-21T00:31:29.756Z,0
2017-01-21T00:32:38.447Z,0
2017-01-21T00:33:47.133Z,0
2017-01-21T00:34:55.826Z,0
2017-01-21T00:36:04.517Z,0
2017-01-21T00:37:13.213Z,0
2017-01-21T00:38:21.902Z,0
2017-01-21T00:39:30.591Z,0
2017-01-21T00:40:39.280Z,0
2017-01-21T00:41:47.977Z,0
2017-01-21T00:42:56.671Z,0
2017-01-21T00:44:05.360Z,0
2017-01-21T00:45:14.049Z,0
2017-01-21T00:46:22.742Z,0
2017-01-21T00:47:31.434Z,0
2017-01-21T00:48:40.126Z,0
2017-01-21T00:49:48.820Z,0
2017-01-21T00:50:57.514Z,0
2017-01-21T00:52:06.206Z,0
2017-01-21T00:53:14.899Z,0
2017-01-21T00:54:23.587Z,0
2017-01-21T00:55:32.276Z,0
2017-01-21T00:56:40.970Z,0
2017-01-21T00:57:49.659Z,0
2017-01-21T00:58:58.354Z,0
2017-01-21T01:00:07.044Z,0
2017-01-21T01:01:15.735Z,0
2017-01-21T01:02:24.423Z,0
2017-01-21T01:03:33.510Z,0
2017-01-21T01:04:42.204Z,0
2017-01-21T01:05:50.897Z,0
2017-01-21T01:06:59.587Z,0
2017-01-21T01:08:08.276Z,0
2017-01-21T01:09:16.962Z,0
2017-01-21T01:10:25.658Z,0
2017-01-21T01:11:34.353Z,0
2017-01-21T01:12:43.045Z,0
2017-01-21T01:13:51.736Z,0
2017-01-21T01:15:00.424Z,0
2017-01-21T01:16:09.112Z,0
2017-01-21T01:17:17.804Z,0
2017-01-21T01:18:26.496Z,0
2017-01-21T01:19:35.182Z,0
2017-01-21T01:20:43.871Z,0
2017-01-21T01:21:52.560Z,0
2017-01-21T01:23:01.250Z,0
2017-01-21T01:24:09.939Z,0
2017-01-21T01:25:18.643Z,0
2017-01-21T01:26:27.342Z,0
2017-01-21T01:27:36.040Z,0
2017-01-21T01:28:44.733Z,0
2017-01-21T01:29:53.426Z,0
2017-01-21T01:31:02.121Z,0
2017-01-21T01:32:11.226Z,0
2017-01-21T01:33:19.918Z,0
2017-01-21T01:34:28.613Z,0
2017-01-21T01:35:37.307Z,0
2017-01-21T01:36:46.000Z,0
2017-01-21T01:37:54.689Z,0
2017-01-21T01:39:03.381Z,0
2017-01-21T01:40:12.075Z,0
2017-01-21T01:41:20.767Z,0
2017-01-21T01:42:29.865Z,0
2017-01-21T01:43:38.555Z,0
2017-01-21T01:44:47.242Z,0
2017-01-21T01:45:55.929Z,0
2017-01-21T01:47:04.635Z,0
2017-01-21T01:48:13.329Z,0
2017-01-21T01:49:22.022Z,0
2017-01-21T01:50:30.715Z,0
2017-01-21T01:51:39.407Z,0
2017-01-21T01:52:48.098Z,0
2017-01-21T01:53:56.789Z,0
2017-01-21T01:55:05.477Z,0
2017-01-21T01:56:14.568Z,0
2017-01-21T01:57:23.283Z,0
2017-01-21T01:58:31.976Z,0
2017-01-21T01:59:40.668Z,0
2017-01-21T02:00:49.354Z,0
2017-01-21T02:01:58.045Z,0
2017-01-21T02:03:06.736Z,0
2017-01-21T02:04:15.425Z,0
2017-01-21T02:05:24.116Z,0
2017-01-21T02:06:32.804Z,0
2017-01-21T02:07:41.498Z,0
2017-01-21T02:08:50.188Z,0
2017-01-21T02:09:58.883Z,0
2017-01-21T02:11:07.575Z,0
2017-01-21T02:12:16.265Z,0
2017-01-21T02:13:24.955Z,0
2017-01-21T02:14:33.646Z,0
2017-01-21T02:15:42.333Z,0
2017-01-21T02:16:51.025Z,0
2017-01-21T02:17:59.713Z,0
2017-01-21T02:19:08.403Z,0
2017-01-21T02:20:17.093Z,0
2017-01-21T02:21:25.780Z,0
2017-01-21T02:22:34.500Z,0
2017-01-21T02:23:43.196Z,0
2017-01-21T02:24:51.892Z,0
2017-01-21T02:26:00.586Z,0
2017-01-21T02:27:09.276Z,0
2017-01-21T02:28:17.971Z,0
2017-01-21T02:29:26.663Z,0
2017-01-21T02:30:35.357Z,0
2017-01-21T02:31:44.048Z,0
2017-01-21T02:32:52.752Z,0
2017-01-21T02:34:01.448Z,0
2017-01-21T02:35:10.145Z,0
2017-01-21T02:36:18.836Z,0
2017-01-21T02:37:27.527Z,0
2017-01-21T02:38:36.219Z,0
2017-01-21T02:39:45.310Z,0
2017-01-21T02:40:54.008Z,0
2017-01-21T02:42:02.697Z,0
2017-01-21T02:43:11.388Z,0
2017-01-21T02:44:20.079Z,0
2017-01-21T02:45:28.771Z,0
2017-01-21T02:46:37.463Z,0
2017-01-21T02:47:46.154Z,0
2017-01-21T02:48:54.848Z,0
2017-01-21T02:50:03.541Z,0
2017-01-21T02:51:12.233Z,0
2017-01-21T02:52:20.921Z,0
2017-01-21T02:53:29.618Z,0
2017-01-21T02:54:38.309Z,0
2017-01-21T02:55:46.998Z,0
2017-01-21T02:56:55.689Z,0
2017-01-21T02:58:04.393Z,0
2017-01-21T02:59:13.087Z,0
2017-01-21T03:00:21.775Z,0
2017-01-21T03:01:30.465Z,0
2017-01-21T03:02:39.160Z,0
2017-01-21T03:03:47.883Z,0
2017-01-21T03:04:56.583Z,0
2017-01-21T03:06:05.275Z,0
2017-01-21T03:07:13.968Z,0
2017-01-21T03:08:22.664Z,0
2017-01-21T03:09:31.349Z,0
2017-01-21T03:10:40.073Z,0
2017-01-21T03:11:48.764Z,0
2017-01-21T03:12:57.457Z,0
2017-01-21T03:14:06.147Z,0
2017-01-21T03:15:14.849Z,0
2017-01-21T03:16:23.543Z,0
2017-01-21T03:17:32.236Z,0
2017-01-21T03:18:40.932Z,0
2017-01-21T03:19:49.624Z,0
2017-01-21T03:20:58.318Z,0
2017-01-21T03:22:07.009Z,0
2017-01-21T03:23:16.051Z,0
2017-01-21T03:24:24.743Z,0
2017-01-21T03:25:33.428Z,0
2017-01-21T03:26:42.123Z,0
2017-01-21T03:27:50.815Z,0
2017-01-21T03:28:59.504Z,0
2017-01-21T03:30:08.196Z,0
2017-01-21T03:31:16.893Z,0
2017-01-21T03:32:25.611Z,0
2017-01-21T03:33:34.300Z,0
2017-01-21T03:34:42.993Z,0
2017-01-21T03:35:51.685Z,0
2017-01-21T03:37:00.376Z,0
2017-01-21T03:38:09.060Z,0
2017-01-21T03:39:17.760Z,0
2017-01-21T03:40:26.454Z,0
2017-01-21T03:41:35.148Z,0
2017-01-21T03:42:43.851Z,0
2017-01-21T03:43:52.540Z,0
2017-01-21T03:45:01.235Z,0
2017-01-21T03:46:09.928Z,0
2017-01-21T03:47:18.627Z,0
2017-01-21T03:48:27.314Z,0
2017-01-21T03:49:36.001Z,0
2017-01-21T03:50:44.689Z,0
2017-01-21T03:51:53.431Z,0
2017-01-21T03:53:02.148Z,0
2017-01-21T03:54:10.836Z,0
2017-01-21T03:55:19.524Z,0
2017-01-21T03:56:28.213Z,0
2017-01-21T03:57:36.905Z,0
2017-01-21T03:58:45.592Z,0
2017-01-21T03:59:54.281Z,0
2017-01-21T04:01:02.975Z,0
2017-01-21T04:02:12.070Z,0
2017-01-21T04:03:20.763Z,0
2017-01-21T04:04:29.458Z,0
2017-01-21T04:05:38.149Z,0
2017-01-21T04:06:46.848Z,0
2017-01-21T04:07:55.535Z,0
2017-01-21T04:09:04.223Z,0
2017-01-21T04:10:12.913Z,0
2017-01-21T04:11:21.611Z,0
2017-01-21T04:12:30.305Z,0
2017-01-21T04:13:39.028Z,0
2017-01-21T04:14:47.724Z,0
2017-01-21T04:15:56.423Z,0
2017-01-21T04:17:05.111Z,0
2017-01-21T04:18:13.810Z,0
2017-01-21T04:19:22.503Z,0
2017-01-21T04:20:31.201Z,0
2017-01-21T04:21:39.892Z,0
2017-01-21T04:22:48.608Z,0
2017-01-21T04:23:57.299Z,0
2017-01-21T04:25:06.413Z,0
2017-01-21T04:26:15.107Z,0
2017-01-21T04:27:23.798Z,0
2017-01-21T04:28:32.489Z,0
2017-01-21T04:29:41.182Z,0
2017-01-21T04:30:49.878Z,0
2017-01-21T04:31:58.592Z,0
2017-01-21T04:33:07.292Z,0
2017-01-21T04:34:16.379Z,0
2017-01-21T04:35:25.069Z,0
2017-01-21T04:36:33.765Z,0
2017-01-21T04:37:42.460Z,0
2017-01-21T04:38:51.149Z,0
2017-01-21T04:39:59.846Z,0
2017-01-21T04:41:08.539Z,0
2017-01-21T04:42:17.233Z,0
2017-01-21T04:43:25.924Z,0
2017-01-21T04:44:34.616Z,0
2017-01-21T04:45:43.306Z,0
2017-01-21T04:46:51.999Z,0
2017-01-21T04:48:00.694Z,0
2017-01-21T04:49:09.389Z,0
2017-01-21T04:50:18.085Z,0
2017-01-21T04:51:26.799Z,0
2017-01-21T04:52:35.487Z,0
2017-01-21T04:53:44.179Z,0
2017-01-21T04:54:52.893Z,0
2017-01-21T04:56:01.589Z,0
2017-01-21T04:57:10.310Z,0
2017-01-21T04:58:19.007Z,0
2017-01-21T04:59:27.697Z,0
2017-01-21T05:00:36.394Z,0
2017-01-21T05:01:45.086Z,0
2017-01-21T05:02:53.785Z,0
2017-01-21T05:04:02.474Z,0
2017-01-21T05:05:11.178Z,0
2017-01-21T05:06:19.876Z,0
2017-01-21T05:07:28.568Z,0
2017-01-21T05:08:37.262Z,0
2017-01-21T05:09:45.955Z,0
2017-01-21T05:10:54.643Z,0
2017-01-21T05:12:03.339Z,0
2017-01-21T05:13:12.031Z,0
2017-01-21T05:14:20.719Z,0
2017-01-21T05:15:29.406Z,0
2017-01-21T05:16:38.097Z,0
2017-01-21T05:17:46.796Z,0
2017-01-21T05:18:55.494Z,0
2017-01-21T05:20:04.209Z,0
2017-01-21T05:21:12.899Z,0
2017-01-21T05:22:21.598Z,0
2017-01-21T05:23:30.388Z,0
2017-01-21T05:24:39.079Z,0
2017-01-21T05:25:47.768Z,0
2017-01-21T05:26:56.461Z,0
2017-01-21T05:28:05.156Z,0
2017-01-21T05:29:13.848Z,0
2017-01-21T05:30:22.536Z,0
2017-01-21T05:31:31.228Z,0
2017-01-21T05:32:39.928Z,0
2017-01-21T05:33:48.616Z,0
2017-01-21T05:34:57.308Z,0
2017-01-21T05:36:05.996Z,0
2017-01-21T05:37:14.688Z,0
2017-01-21T05:38:23.379Z,0
2017-01-21T05:39:32.076Z,0
2017-01-21T05:40:40.769Z,0
2017-01-21T05:41:49.462Z,0
2017-01-21T05:42:58.150Z,0
2017-01-21T05:44:06.841Z,0
2017-01-21T05:45:15.524Z,0
2017-01-21T05:46:24.216Z,0
2017-01-21T05:47:32.910Z,0
2017-01-21T05:48:41.601Z,0
2017-01-21T05:49:50.291Z,0
2017-01-21T05:50:58.981Z,0
2017-01-21T05:52:07.670Z,0
2017-01-21T05:53:16.357Z,0
2017-01-21T05:54:25.048Z,0
2017-01-21T05:55:33.740Z,0
2017-01-21T05:56:42.436Z,0
2017-01-21T05:57:51.147Z,0
2017-01-21T05:58:59.837Z,0
2017-01-21T06:00:08.931Z,0
2017-01-21T06:01:17.635Z,0
2017-01-21T06:02:26.327Z,0
2017-01-21T06:03:35.048Z,0
2017-01-21T06:04:43.737Z,0
2017-01-21T06:05:52.426Z,0
2017-01-21T06:07:01.116Z,0
2017-01-21T06:08:09.807Z,0
2017-01-21T06:09:18.494Z,0
2017-01-21T06:10:27.179Z,0
2017-01-21T06:11:35.872Z,0
2017-01-21T06:12:44.967Z,0
2017-01-21T06:13:53.663Z,0
2017-01-21T06:15:02.353Z,0
2017-01-21T06:16:11.036Z,0
2017-01-21T06:17:19.727Z,0
2017-01-21T06:18:28.416Z,0
2017-01-21T06:19:37.099Z,0
2017-01-21T06:20:45.791Z,0
2017-01-21T06:21:54.486Z,0
2017-01-21T06:23:03.177Z,0
2017-01-21T06:24:11.864Z,0
2017-01-21T06:25:20.556Z,0
2017-01-21T06:26:29.243Z,0
2017-01-21T06:27:37.928Z,0
2017-01-21T06:28:46.620Z,0
2017-01-21T06:29:55.315Z,0
2017-01-21T06:31:04.002Z,0
2017-01-21T06:32:12.690Z,0
2017-01-21T06:33:21.375Z,0
2017-01-21T06:34:30.069Z,0
2017-01-21T06:35:38.760Z,0
2017-01-21T06:36:47.447Z,0
2017-01-21T06:37:56.156Z,0
2017-01-21T06:39:04.865Z,0
2017-01-21T06:40:13.555Z,0
2017-01-21T06:41:22.242Z,0
2017-01-21T06:42:30.930Z,0
2017-01-21T06:43:39.617Z,0
2017-01-21T06:44:48.308Z,0
2017-01-21T06:45:57.002Z,0
2017-01-21T06:47:05.689Z,0
2017-01-21T06:48:14.382Z,0
2017-01-21T06:49:23.092Z,0
2017-01-21T06:50:31.783Z,0
2017-01-21T06:51:40.476Z,0
2017-01-21T06:52:49.164Z,0
2017-01-21T06:53:57.848Z,0
2017-01-21T06:55:06.535Z,0
2017-01-21T06:56:15.227Z,0
2017-01-21T06:57:23.917Z,0
2017-01-21T06:58:32.607Z,0
2017-01-21T06:59:41.294Z,0
2017-01-21T07:00:49.987Z,0
2017-01-21T07:01:58.680Z,0
2017-01-21T07:03:07.369Z,0
2017-01-21T07:04:16.056Z,0
2017-01-21T07:05:24.740Z,0
2017-01-21T07:06:33.422Z,0
2017-01-21T07:07:42.108Z,0
2017-01-21T07:08:50.797Z,0
2017-01-21T07:09:59.524Z,0
2017-01-21T07:11:08.213Z,0
2017-01-21T07:12:16.906Z,0
2017-01-21T07:13:25.599Z,0
2017-01-21T07:14:34.290Z,0
2017-01-21T07:15:42.988Z,0
2017-01-21T07:16:51.685Z,0
2017-01-21T07:18:00.372Z,0
2017-01-21T07:19:09.060Z,0
2017-01-21T07:20:17.749Z,0
2017-01-21T07:21:26.435Z,0
2017-01-21T07:22:35.125Z,0
2017-01-21T07:23:43.817Z,0
2017-01-21T07:24:52.503Z,0
2017-01-21T07:26:01.193Z,0
2017-01-21T07:27:10.281Z,0
2017-01-21T07:28:19.011Z,0
2017-01-21T07:29:27.706Z,0
2017-01-21T07:30:36.394Z,0
2017-01-21T07:31:45.086Z,0
2017-01-21T07:32:53.776Z,0
2017-01-21T07:34:02.465Z,0
2017-01-21T07:35:11.159Z,0
2017-01-21T07:36:19.848Z,0
2017-01-21T07:37:28.540Z,0
2017-01-21T07:38:37.230Z,0
2017-01-21T07:39:45.919Z,0
2017-01-21T07:40:54.605Z,0
2017-01-21T07:42:03.294Z,0
2017-01-21T07:43:11.983Z,0
2017-01-21T07:44:20.674Z,5
2017-01-21T07:45:29.361Z,5
2017-01-21T07:46:38.045Z,5
2017-01-21T07:47:46.739Z,5
2017-01-21T07:48:55.431Z,5
2017-01-21T07:50:04.123Z,5
2017-01-21T07:51:12.817Z,5
2017-01-21T07:52:21.509Z,5
2017-01-21T07:53:30.204Z,5
2017-01-21T07:54:38.892Z,5
2017-01-21T07:55:47.573Z,10
2017-01-21T07:56:56.261Z,10
2017-01-21T07:58:04.982Z,10
2017-01-21T07:59:13.673Z,10
2017-01-21T08:00:22.368Z,10
2017-01-21T08:01:31.056Z,10
2017-01-21T08:02:39.771Z,10
2017-01-21T08:03:48.464Z,10
2017-01-21T08:04:57.151Z,15
2017-01-21T08:06:05.837Z,15
2017-01-21T08:07:14.523Z,15
2017-01-21T08:08:23.215Z,15
2017-01-21T08:09:31.907Z,15
2017-01-21T08:10:40.610Z,15
2017-01-21T08:11:49.298Z,15
2017-01-21T08:12:57.988Z,20
2017-01-21T08:14:06.692Z,20
2017-01-21T08:15:15.384Z,20
2017-01-21T08:16:24.080Z,20
2017-01-21T08:17:32.766Z,20
2017-01-21T08:18:41.461Z,20
2017-01-21T08:19:50.159Z,25
2017-01-21T08:20:58.846Z,25
2017-01-21T08:22:07.531Z,25
2017-01-21T08:23:16.234Z,25
2017-01-21T08:24:24.922Z,30
2017-01-21T08:25:33.613Z,30
2017-01-21T08:26:42.299Z,30
2017-01-21T08:27:50.990Z,30
2017-01-21T08:28:59.676Z,35
2017-01-21T08:30:08.366Z,35
2017-01-21T08:31:17.056Z,35
2017-01-21T08:32:25.743Z,35
2017-01-21T08:33:34.457Z,40
2017-01-21T08:34:43.142Z,40
2017-01-21T08:35:51.830Z,40
2017-01-21T08:37:00.516Z,40
2017-01-21T08:38:09.603Z,45
2017-01-21T08:39:18.292Z,45
2017-01-21T08:40:26.979Z,45
2017-01-21T08:41:35.673Z,50
2017-01-21T08:42:44.360Z,50
2017-01-21T08:43:53.063Z,50
2017-01-21T08:45:01.746Z,50
2017-01-21T08:46:10.443Z,55
2017-01-21T08:47:19.133Z,55
2017-01-21T08:48:27.814Z,55
2017-01-21T08:49:36.554Z,60
2017-01-21T08:50:45.243Z,60
2017-01-21T08:51:53.932Z,60
2017-01-21T08:53:02.620Z,65
2017-01-21T08:54:11.372Z,65
2017-01-21T08:55:20.058Z,65
2017-01-21T08:56:28.748Z,70
2017-01-21T08:57:37.433Z,70
2017-01-21T08:58:46.119Z,70
2017-01-21T08:59:54.802Z,70
2017-01-21T09:01:03.491Z,75
2017-01-21T09:02:12.186Z,75
2017-01-21T09:03:20.891Z,75
2017-01-21T09:04:29.605Z,75
2017-01-21T09:05:38.289Z,75
2017-01-21T09:06:49.968Z,75
2017-01-21T09:07:58.697Z,75
2017-01-21T09:09:07.385Z,75
2017-01-21T09:10:16.103Z,75
2017-01-21T09:11:24.786Z,75
2017-01-21T09:12:33.524Z,75
2017-01-21T09:13:42.217Z,75
2017-01-21T09:14:50.904Z,80
2017-01-21T09:15:59.597Z,80
2017-01-21T09:17:08.293Z,80
2017-01-21T09:18:17.086Z,80
2017-01-21T09:19:25.779Z,80
2017-01-21T09:20:34.471Z,85
2017-01-21T09:21:43.164Z,80
2017-01-21T09:22:51.889Z,80
2017-01-21T09:24:00.650Z,80
2017-01-21T09:25:09.335Z,80
2017-01-21T09:26:18.026Z,80
2017-01-21T09:27:26.720Z,80
2017-01-21T09:28:35.414Z,85
2017-01-21T09:29:44.449Z,85
2017-01-21T09:30:53.148Z,85
2017-01-21T09:32:01.839Z,85
2017-01-21T09:33:10.530Z,90
2017-01-21T09:34:19.220Z,90
2017-01-21T09:35:27.963Z,90
2017-01-21T09:36:36.648Z,95
2017-01-21T09:37:45.335Z,95
2017-01-21T09:38:54.024Z,95
2017-01-21T09:40:02.719Z,100
2017-01-21T09:41:11.459Z,100
2017-01-21T09:42:20.151Z,100
2017-01-21T09:43:28.841Z,100
2017-01-21T09:44:37.533Z,105
2017-01-21T09:45:46.220Z,105
2017-01-21T09:46:54.958Z,105
2017-01-21T09:48:03.648Z,110
2017-01-21T09:49:12.337Z,110
2017-01-21T09:50:21.185Z,115
2017-01-21T09:51:29.874Z,115
2017-01-21T09:52:38.616Z,115
2017-01-21T09:53:47.299Z,120
2017-01-21T09:54:55.990Z,120
2017-01-21T09:56:04.683Z,120
2017-01-21T09:57:13.372Z,120
2017-01-21T09:58:22.158Z,125
2017-01-21T09:59:30.845Z,125
2017-01-21T10:00:39.537Z,125
2017-01-21T10:01:48.227Z,125
2017-01-21T10:02:56.914Z,125
2017-01-21T10:04:05.652Z,130
2017-01-21T10:05:14.350Z,135
2017-01-21T10:06:23.041Z,130
2017-01-21T10:07:31.730Z,135
2017-01-21T10:08:40.424Z,140
2017-01-21T10:09:49.159Z,145
2017-01-21T10:10:57.845Z,145
2017-01-21T10:12:06.544Z,145
2017-01-21T10:13:15.231Z,145
2017-01-21T10:14:23.921Z,150
2017-01-21T10:15:32.691Z,150
2017-01-21T10:16:41.402Z,150
2017-01-21T10:17:50.094Z,145
2017-01-21T10:18:58.783Z,150
2017-01-21T10:20:07.883Z,140
2017-01-21T10:21:16.619Z,135
2017-01-21T10:22:25.303Z,135
2017-01-21T10:23:33.992Z,140
2017-01-21T10:24:42.681Z,140
2017-01-21T10:25:51.368Z,140
2017-01-21T10:27:00.107Z,140
2017-01-21T10:28:08.795Z,145
2017-01-21T10:29:17.481Z,155
2017-01-21T10:30:26.169Z,155
2017-01-21T10:31:34.863Z,155
2017-01-21T10:32:43.598Z,160
2017-01-21T10:33:52.290Z,160
2017-01-21T10:35:00.980Z,165
2017-01-21T10:36:09.665Z,170
2017-01-21T10:37:18.364Z,170
2017-01-21T10:38:27.499Z,160
2017-01-21T10:39:36.188Z,165
2017-01-21T10:40:44.876Z,170
2017-01-21T10:41:53.565Z,170
2017-01-21T10:43:02.283Z,175
2017-01-21T10:44:11.025Z,175
2017-01-21T10:45:19.715Z,180
2017-01-21T10:46:28.407Z,185
2017-01-21T10:47:37.096Z,185
2017-01-21T10:48:45.787Z,190
2017-01-21T10:49:54.521Z,190
2017-01-21T10:51:03.213Z,225
2017-01-21T10:52:11.906Z,275
2017-01-21T10:53:20.596Z,495
2017-01-21T10:54:29.286Z,500
2017-01-21T10:55:38.022Z,485
2017-01-21T10:56:46.722Z,420
2017-01-21T10:57:55.416Z,395
2017-01-21T10:59:04.127Z,360
2017-01-21T11:00:12.830Z,260
2017-01-21T11:01:21.573Z,265
2017-01-21T11:02:30.270Z,310
2017-01-21T11:03:38.967Z,255
2017-01-21T11:04:47.661Z,295
2017-01-21T11:05:56.349Z,310
2017-01-21T11:07:05.093Z,320
2017-01-21T11:08:14.190Z,320
2017-01-21T11:09:22.887Z,315
2017-01-21T11:10:31.581Z,285
2017-01-21T11:11:40.274Z,240
2017-01-21T11:12:49.017Z,305
2017-01-21T11:13:57.718Z,315
2017-01-21T11:15:06.416Z,335
2017-01-21T11:16:15.112Z,340
2017-01-21T11:17:23.817Z,340
2017-01-21T11:18:32.586Z,345
2017-01-21T11:19:41.287Z,355
2017-01-21T11:20:49.980Z,360
2017-01-21T11:21:58.682Z,360
2017-01-21T11:23:07.377Z,370
2017-01-21T11:24:16.523Z,375
2017-01-21T11:25:25.217Z,385
2017-01-21T11:26:33.913Z,400
2017-01-21T11:27:42.613Z,370
2017-01-21T11:28:51.309Z,365
2017-01-21T11:30:00.061Z,355
2017-01-21T11:31:08.768Z,295
2017-01-21T11:32:17.491Z,275
2017-01-21T11:33:26.187Z,275
2017-01-21T11:34:34.890Z,255
2017-01-21T11:35:43.688Z,225
2017-01-21T11:36:52.399Z,235
2017-01-21T11:38:01.091Z,285
2017-01-21T11:39:09.795Z,220
2017-01-21T11:40:18.494Z,220
2017-01-21T11:41:27.240Z,295
2017-01-21T11:42:35.942Z,275
2017-01-21T11:43:44.638Z,370
2017-01-21T11:44:53.347Z,310
2017-01-21T11:46:02.047Z,285
2017-01-21T11:47:10.842Z,260
2017-01-21T11:48:19.547Z,280
2017-01-21T11:49:28.251Z,350
2017-01-21T11:50:36.947Z,255
2017-01-21T11:51:45.658Z,260
2017-01-21T11:52:57.744Z,345
2017-01-21T11:54:06.438Z,275
2017-01-21T11:55:15.136Z,265
2017-01-21T11:56:23.866Z,245
2017-01-21T11:57:32.564Z,265
2017-01-21T11:58:41.338Z,320
2017-01-21T11:59:50.035Z,335
2017-01-21T12:00:58.734Z,300
2017-01-21T12:02:07.436Z,310
2017-01-21T12:03:16.145Z,245
2017-01-21T12:04:24.890Z,280
2017-01-21T12:05:33.588Z,265
2017-01-21T12:06:42.286Z,230
2017-01-21T12:07:50.981Z,230
2017-01-21T12:09:00.078Z,225
2017-01-21T12:10:08.828Z,230
2017-01-21T12:11:17.525Z,245
2017-01-21T12:12:26.228Z,225
2017-01-21T12:13:34.921Z,225
2017-01-21T12:14:43.631Z,235
2017-01-21T12:15:52.384Z,220
2017-01-21T12:17:01.080Z,230
2017-01-21T12:18:09.777Z,215
2017-01-21T12:19:18.483Z,220
2017-01-21T12:20:27.177Z,210
2017-01-21T12:21:35.920Z,205
2017-01-21T12:22:44.619Z,205
2017-01-21T12:23:53.322Z,200
2017-01-21T12:25:02.019Z,195
2017-01-21T12:26:10.713Z,190
2017-01-21T12:27:19.464Z,190
2017-01-21T12:28:28.158Z,190
2017-01-21T12:29:36.852Z,190
2017-01-21T12:30:45.560Z,185
2017-01-21T12:31:54.257Z,180
2017-01-21T12:33:02.977Z,180
2017-01-21T12:34:11.679Z,175
2017-01-21T12:35:20.372Z,175
2017-01-21T12:36:29.065Z,170
2017-01-21T12:37:37.761Z,165
2017-01-21T12:38:46.460Z,160
2017-01-21T12:39:55.156Z,160
2017-01-21T12:41:03.854Z,155
2017-01-21T12:42:12.550Z,160
2017-01-21T12:43:21.249Z,150
2017-01-21T12:44:29.943Z,150
2017-01-21T12:45:38.641Z,145
2017-01-21T12:46:47.344Z,145
2017-01-21T12:47:56.033Z,145
2017-01-21T12:49:04.739Z,145
2017-01-21T12:50:13.440Z,145
2017-01-21T12:51:22.140Z,145
2017-01-21T12:52:30.839Z,145
2017-01-21T12:53:39.532Z,145
2017-01-21T12:54:48.224Z,145
2017-01-21T12:55:56.917Z,145
2017-01-21T12:57:05.613Z,145
2017-01-21T12:58:14.311Z,145
2017-01-21T12:59:23.006Z,140
2017-01-21T13:00:31.703Z,140
2017-01-21T13:01:40.400Z,135
2017-01-21T13:02:49.091Z,135
2017-01-21T13:03:57.785Z,135
2017-01-21T13:05:06.489Z,135
2017-01-21T13:06:15.213Z,130
2017-01-21T13:07:23.901Z,130
2017-01-21T13:08:32.593Z,130
2017-01-21T13:09:41.290Z,125
2017-01-21T13:10:49.984Z,125
2017-01-21T13:11:58.681Z,125
2017-01-21T13:13:07.769Z,125
2017-01-21T13:14:16.864Z,125
2017-01-21T13:15:25.555Z,120
2017-01-21T13:16:34.245Z,120
2017-01-21T13:17:42.938Z,115
2017-01-21T13:18:51.634Z,115
2017-01-21T13:20:00.330Z,115
2017-01-21T13:21:09.027Z,115
2017-01-21T13:22:17.713Z,115
2017-01-21T13:23:26.399Z,110
2017-01-21T13:24:35.095Z,110
2017-01-21T13:25:43.789Z,110
2017-01-21T13:26:52.484Z,110
2017-01-21T13:28:01.208Z,110
2017-01-21T13:29:09.898Z,110
2017-01-21T13:30:18.592Z,110
2017-01-21T13:31:27.287Z,110
2017-01-21T13:32:35.976Z,110
2017-01-21T13:33:44.670Z,110
2017-01-21T13:34:53.360Z,110
2017-01-21T13:36:02.051Z,110
2017-01-21T13:37:10.748Z,105
2017-01-21T13:38:19.441Z,105
2017-01-21T13:39:28.136Z,105
2017-01-21T13:40:36.854Z,100
2017-01-21T13:41:45.545Z,100
2017-01-21T13:42:54.234Z,100
2017-01-21T13:44:02.926Z,100
2017-01-21T13:45:11.621Z,100
2017-01-21T13:46:20.318Z,100
2017-01-21T13:47:29.011Z,100
2017-01-21T13:48:37.702Z,95
2017-01-21T13:49:46.387Z,95
2017-01-21T13:50:55.075Z,95
2017-01-21T13:52:03.765Z,95
2017-01-21T13:53:12.459Z,95
2017-01-21T13:54:21.151Z,95
2017-01-21T13:55:29.850Z,90
2017-01-21T13:56:38.542Z,90
2017-01-21T13:57:47.236Z,90
2017-01-21T13:58:55.927Z,90
2017-01-21T14:00:04.619Z,85
2017-01-21T14:01:13.312Z,85
2017-01-21T14:02:22.003Z,85
2017-01-21T14:03:30.693Z,80
2017-01-21T14:04:39.389Z,80
2017-01-21T14:05:48.083Z,75
2017-01-21T14:06:56.770Z,75
2017-01-21T14:08:05.461Z,75
2017-01-21T14:09:14.156Z,70
2017-01-21T14:10:22.880Z,70
2017-01-21T14:11:31.571Z,70
2017-01-21T14:12:40.262Z,65
2017-01-21T14:13:48.955Z,65
2017-01-21T14:14:57.645Z,60
2017-01-21T14:16:06.340Z,60
2017-01-21T14:17:15.028Z,60
2017-01-21T14:18:23.718Z,55
2017-01-21T14:19:32.405Z,55
2017-01-21T14:20:41.095Z,55
2017-01-21T14:21:49.793Z,50
2017-01-21T14:22:58.480Z,50
2017-01-21T14:24:07.174Z,50
2017-01-21T14:25:15.866Z,45
2017-01-21T14:26:24.556Z,45
2017-01-21T14:27:33.245Z,45
2017-01-21T14:28:41.932Z,45
2017-01-21T14:29:50.620Z,45
2017-01-21T14:30:59.308Z,40
2017-01-21T14:32:07.997Z,40
2017-01-21T14:33:16.687Z,40
2017-01-21T14:34:25.379Z,35
2017-01-21T14:35:34.068Z,35
2017-01-21T14:36:42.758Z,35
2017-01-21T14:37:51.445Z,30
2017-01-21T14:39:00.136Z,30
2017-01-21T14:40:08.827Z,25
2017-01-21T14:41:17.514Z,25
2017-01-21T14:42:26.203Z,25
2017-01-21T14:43:34.905Z,20
2017-01-21T14:44:43.594Z,20
2017-01-21T14:45:52.282Z,20
2017-01-21T14:47:00.971Z,20
2017-01-21T14:48:09.658Z,15
2017-01-21T14:49:18.374Z,15
2017-01-21T14:50:27.067Z,15
2017-01-21T14:51:35.756Z,15
2017-01-21T14:52:44.445Z,15
2017-01-21T14:53:53.131Z,10
2017-01-21T14:55:01.819Z,10
2017-01-21T14:56:10.521Z,10
2017-01-21T14:57:19.234Z,10
2017-01-21T14:58:27.948Z,10
2017-01-21T14:59:36.642Z,10
2017-01-21T15:00:45.332Z,10
2017-01-21T15:01:54.023Z,5
2017-01-21T15:03:02.710Z,5
2017-01-21T15:04:11.395Z,5
2017-01-21T15:05:20.085Z,5
2017-01-21T15:06:28.770Z,5
2017-01-21T15:07:37.462Z,5
2017-01-21T15:08:46.156Z,5
2017-01-21T15:09:54.850Z,5
2017-01-21T15:11:03.538Z,5
2017-01-21T15:12:12.626Z,5
2017-01-21T15:13:21.359Z,5
2017-01-21T15:14:30.043Z,5
2017-01-21T15:15:38.723Z,5
2017-01-21T15:16:47.412Z,5
2017-01-21T15:17:56.095Z,0
2017-01-21T15:19:04.785Z,0
2017-01-21T15:20:13.478Z,0
2017-01-21T15:21:22.184Z,0
2017-01-21T15:22:30.872Z,0
2017-01-21T15:23:39.559Z,0
2017-01-21T15:24:48.247Z,0
2017-01-21T15:25:56.940Z,0
2017-01-21T15:27:05.622Z,0
2017-01-21T15:28:14.310Z,0
2017-01-21T15:29:23.004Z,0
2017-01-21T15:30:31.700Z,0
2017-01-21T15:31:40.385Z,0
2017-01-21T15:32:49.075Z,0
2017-01-21T15:33:57.761Z,0
2017-01-21T15:35:06.447Z,0
2017-01-21T15:36:15.137Z,0
2017-01-21T15:37:23.821Z,0
2017-01-21T15:38:32.507Z,0
2017-01-21T15:39:41.193Z,0
2017-01-21T15:40:49.879Z,0
2017-01-21T15:41:58.563Z,0
2017-01-21T15:43:07.254Z,0
2017-01-21T15:44:15.936Z,0
2017-01-21T15:45:24.617Z,0
2017-01-21T15:46:33.307Z,0
2017-01-21T15:47:41.998Z,0
2017-01-21T15:48:50.700Z,0
2017-01-21T15:49:59.387Z,0
2017-01-21T15:51:08.098Z,0
2017-01-21T15:52:16.785Z,0
2017-01-21T15:53:25.471Z,0
2017-01-21T15:54:34.158Z,0
2017-01-21T15:55:42.847Z,0
2017-01-21T15:56:51.536Z,0
2017-01-21T15:58:00.225Z,0
2017-01-21T15:59:08.912Z,0
2017-01-21T16:00:17.602Z,0
2017-01-21T16:01:26.293Z,0
2017-01-21T16:02:34.982Z,0
2017-01-21T16:03:43.666Z,0
2017-01-21T16:04:52.387Z,0
2017-01-21T16:06:01.070Z,0
2017-01-21T16:07:09.755Z,0
2017-01-21T16:08:18.440Z,0
2017-01-21T16:09:27.126Z,0
2017-01-21T16:10:35.807Z,0
2017-01-21T16:11:44.489Z,0
2017-01-21T16:12:53.172Z,0
2017-01-21T16:14:01.885Z,0
2017-01-21T16:15:10.575Z,0
2017-01-21T16:16:19.259Z,0
2017-01-21T16:17:27.944Z,0
2017-01-21T16:18:36.633Z,0
2017-01-21T16:19:45.319Z,0
2017-01-21T16:20:54.004Z,0
2017-01-21T16:22:02.685Z,0
2017-01-21T16:23:11.373Z,0
2017-01-21T16:24:20.059Z,0
2017-01-21T16:25:28.765Z,0
2017-01-21T16:26:37.448Z,0
2017-01-21T16:27:46.132Z,0
2017-01-21T16:28:54.820Z,0
2017-01-21T16:30:03.504Z,0
2017-01-21T16:31:12.188Z,0